Accueil
Images satellite Prévisions 15 joursClimatMétéo marine Cyclones Foudre AéroportsFAQ Actualités A propos
Météo : Europe Afrique Amérique du Nord Amérique du Sud Asie Australie-Océanie Autres
Langues Contact

Bergerac, France

Roumanière

latitude: 44-49N, longitude: 000-31E, altitude: 51 m


METAR: LFBE 230330Z AUTO 00000KT 5000 BR NSC 15/14 Q1015
short-TAF: LFBE 221400Z 2215/2224 34005KT 9999 SCT030 BECMG 2215/2218 CAVOK
long-TAF: périmé (51533 heures)

Heure: 05:42 (03:42 UTC)

Observation

Le bulletin a été fait il y a 12 minutes, à 03:30 UTC  
Vent calme
Température 15°C
Humidité 94%
Pression 1015 hPa
Visibilité 5000 m
brume

Changer d'unités

Prévision

Le bulletin a été fait il y a 13 heures et 27 minutes, à 14:15 UTC  
Prévision valable du 22 à 15 UTC au 22 à 24 UTC
Vent 05 kt de nord/nord-ouest
Visibilité 10 km ou plus
Nuages épars à une hauteur de 3000 ft
Evoluant progressivement
du 22 à 15 UTC au 22 à 18 UTC
Visibilité 10 km ou plus
pas de nuages en-dessous de 1500 mètres et pas de cumulonimbus.
Les informations qui figurent sur ce site font l'objet d'une clause de non-responsabilité
Météo : Europe Afrique Amérique du Nord Amérique du Sud Asie Australie-Océanie Autres
Images satellite Prévisions 15 joursClimatMétéo marine Cyclones Foudre AéroportsFAQ Langues Contact Actualités A propos